Langholm, United Kingdom
Current Conditions -  °F | °C
As of 5:20 AM on Wednesday 26 Nov 2014 (Local Time) from EGNT Reporting Station
Light Rain Light Rain  
Wind Chill:   Ceiling: 1100
Heat Index:   Visibility: 6mi
Dew Point:   Wind: 3mph
Humidity: 100%   Direction: 280°W
Pressure: 30.03"   Gusts: NA
Location:  55.15°N, 3°W
Report Text: EGNT 260520Z 28003KT 9999 -RA SCT008 BKN011 04/04 Q1017
Loading
Personal Weather Stations






























Interactive Weather Map New forecast layout! Learn more

10-Day Weather Forecast

Advertisements
Track Severe Weather on mobile